sensor_id;sensor_type;location;lat;lon;timestamp;noise_LAeq;noise_LA_min;noise_LA_max;noise_LA01;noise_LA95
67900;Laerm;54700;51.796;10.956;2022-10-31T00:01:24;35.07;28.35;47.23;;
67900;Laerm;54700;51.796;10.956;2022-10-31T00:03:51;48.66;27.44;64.79;;
67900;Laerm;54700;51.796;10.956;2022-10-31T00:06:18;41.46;28.53;60.71;;
67900;Laerm;54700;51.796;10.956;2022-10-31T00:08:45;50.81;30.46;67.69;;
67900;Laerm;54700;51.796;10.956;2022-10-31T00:11:13;50.24;27.92;66.68;;
67900;Laerm;54700;51.796;10.956;2022-10-31T00:13:40;54.94;28.41;69.75;;
67900;Laerm;54700;51.796;10.956;2022-10-31T00:16:13;59.91;27.86;70.99;;
67900;Laerm;54700;51.796;10.956;2022-10-31T00:18:40;33.29;27.52;45.16;;
67900;Laerm;54700;51.796;10.956;2022-10-31T00:21:07;51.12;27.67;67.71;;
67900;Laerm;54700;51.796;10.956;2022-10-31T00:23:34;30.34;27.37;40.74;;
67900;Laerm;54700;51.796;10.956;2022-10-31T00:26:02;29.26;27.33;43.37;;
67900;Laerm;54700;51.796;10.956;2022-10-31T00:28:31;28.73;26.66;32.36;;
67900;Laerm;54700;51.796;10.956;2022-10-31T00:30:59;43.36;27.74;59.40;;
67900;Laerm;54700;51.796;10.956;2022-10-31T00:33:26;30.43;27.50;39.17;;
67900;Laerm;54700;51.796;10.956;2022-10-31T00:35:53;31.79;27.27;47.43;;
67900;Laerm;54700;51.796;10.956;2022-10-31T00:38:20;29.91;27.05;36.30;;
67900;Laerm;54700;51.796;10.956;2022-10-31T00:40:47;37.59;27.15;52.34;;
67900;Laerm;54700;51.796;10.956;2022-10-31T00:43:14;53.15;32.67;68.39;;
67900;Laerm;54700;51.796;10.956;2022-10-31T00:45:43;35.41;30.47;47.62;;
67900;Laerm;54700;51.796;10.956;2022-10-31T00:48:10;32.29;28.24;42.62;;
67900;Laerm;54700;51.796;10.956;2022-10-31T00:50:38;55.39;28.34;70.73;;
67900;Laerm;54700;51.796;10.956;2022-10-31T00:53:05;30.09;27.54;35.54;;
67900;Laerm;54700;51.796;10.956;2022-10-31T00:55:32;33.07;27.86;47.33;;
67900;Laerm;54700;51.796;10.956;2022-10-31T00:57:59;53.46;28.47;69.29;;
67900;Laerm;54700;51.796;10.956;2022-10-31T01:00:26;31.14;27.94;40.80;;
67900;Laerm;54700;51.796;10.956;2022-10-31T01:02:55;31.80;28.38;46.25;;
67900;Laerm;54700;51.796;10.956;2022-10-31T01:05:22;33.83;28.39;48.03;;
67900;Laerm;54700;51.796;10.956;2022-10-31T01:07:49;31.33;27.52;42.01;;
67900;Laerm;54700;51.796;10.956;2022-10-31T01:10:16;35.78;31.42;47.76;;
67900;Laerm;54700;51.796;10.956;2022-10-31T01:12:44;34.92;29.73;45.62;;
67900;Laerm;54700;51.796;10.956;2022-10-31T01:15:14;33.53;28.24;56.30;;
67900;Laerm;54700;51.796;10.956;2022-10-31T01:17:41;52.13;28.49;68.99;;
67900;Laerm;54700;51.796;10.956;2022-10-31T01:20:11;32.39;28.25;45.99;;
67900;Laerm;54700;51.796;10.956;2022-10-31T01:22:38;30.94;28.19;45.62;;
67900;Laerm;54700;51.796;10.956;2022-10-31T01:25:07;32.74;28.79;40.41;;
67900;Laerm;54700;51.796;10.956;2022-10-31T01:27:34;31.82;28.44;37.75;;
67900;Laerm;54700;51.796;10.956;2022-10-31T01:30:00;30.65;27.89;40.39;;
67900;Laerm;54700;51.796;10.956;2022-10-31T01:32:27;53.23;27.98;71.52;;
67900;Laerm;54700;51.796;10.956;2022-10-31T01:34:55;31.49;27.07;43.79;;
67900;Laerm;54700;51.796;10.956;2022-10-31T01:37:23;28.75;26.89;37.27;;
67900;Laerm;54700;51.796;10.956;2022-10-31T01:39:50;33.11;27.32;52.27;;
67900;Laerm;54700;51.796;10.956;2022-10-31T01:42:19;30.05;27.70;41.13;;
67900;Laerm;54700;51.796;10.956;2022-10-31T01:44:53;35.13;29.35;43.84;;
67900;Laerm;54700;51.796;10.956;2022-10-31T01:47:30;32.91;27.81;43.81;;
67900;Laerm;54700;51.796;10.956;2022-10-31T01:50:00;51.71;27.86;68.35;;
67900;Laerm;54700;51.796;10.956;2022-10-31T01:52:34;30.94;27.43;38.17;;
67900;Laerm;54700;51.796;10.956;2022-10-31T01:55:05;35.92;27.29;46.73;;
67900;Laerm;54700;51.796;10.956;2022-10-31T01:57:33;31.45;27.07;44.66;;
67900;Laerm;54700;51.796;10.956;2022-10-31T02:00:07;40.10;27.74;55.79;;
67900;Laerm;54700;51.796;10.956;2022-10-31T02:02:34;46.10;27.38;62.19;;
67900;Laerm;54700;51.796;10.956;2022-10-31T02:05:04;38.23;27.44;56.88;;
67900;Laerm;54700;51.796;10.956;2022-10-31T02:07:43;33.35;27.33;44.05;;
67900;Laerm;54700;51.796;10.956;2022-10-31T02:10:12;30.18;27.51;35.11;;
67900;Laerm;54700;51.796;10.956;2022-10-31T02:12:39;30.56;27.12;38.13;;
67900;Laerm;54700;51.796;10.956;2022-10-31T02:15:08;32.48;28.66;40.22;;
67900;Laerm;54700;51.796;10.956;2022-10-31T02:17:35;32.88;27.98;50.90;;
67900;Laerm;54700;51.796;10.956;2022-10-31T02:20:11;33.39;28.15;44.34;;
67900;Laerm;54700;51.796;10.956;2022-10-31T02:22:54;29.75;27.36;38.27;;
67900;Laerm;54700;51.796;10.956;2022-10-31T02:25:42;29.00;26.77;37.97;;
67900;Laerm;54700;51.796;10.956;2022-10-31T02:28:29;27.99;26.70;34.72;;
67900;Laerm;54700;51.796;10.956;2022-10-31T02:31:09;30.18;26.71;38.24;;
67900;Laerm;54700;51.796;10.956;2022-10-31T02:33:43;28.61;26.97;40.75;;
67900;Laerm;54700;51.796;10.956;2022-10-31T02:36:19;32.46;27.21;40.31;;
67900;Laerm;54700;51.796;10.956;2022-10-31T02:38:52;30.68;27.14;54.00;;
67900;Laerm;54700;51.796;10.956;2022-10-31T02:41:27;31.02;27.02;41.54;;
67900;Laerm;54700;51.796;10.956;2022-10-31T02:44:04;29.62;27.21;38.72;;
67900;Laerm;54700;51.796;10.956;2022-10-31T02:46:37;29.45;26.77;38.37;;
67900;Laerm;54700;51.796;10.956;2022-10-31T02:49:10;28.75;26.60;37.64;;
67900;Laerm;54700;51.796;10.956;2022-10-31T02:51:39;29.60;27.00;38.67;;
67900;Laerm;54700;51.796;10.956;2022-10-31T02:54:17;30.05;26.95;38.89;;
67900;Laerm;54700;51.796;10.956;2022-10-31T02:56:44;32.28;26.85;46.60;;
67900;Laerm;54700;51.796;10.956;2022-10-31T02:59:11;30.75;27.46;40.34;;
67900;Laerm;54700;51.796;10.956;2022-10-31T03:02:08;49.61;27.40;65.44;;
67900;Laerm;54700;51.796;10.956;2022-10-31T03:04:49;34.86;28.54;45.41;;
67900;Laerm;54700;51.796;10.956;2022-10-31T03:07:25;38.91;28.99;52.72;;
67900;Laerm;54700;51.796;10.956;2022-10-31T03:10:03;46.02;27.54;62.07;;
67900;Laerm;54700;51.796;10.956;2022-10-31T03:12:38;48.18;27.10;67.22;;
67900;Laerm;54700;51.796;10.956;2022-10-31T03:15:13;38.17;27.80;57.97;;
67900;Laerm;54700;51.796;10.956;2022-10-31T03:17:50;29.44;27.14;37.34;;
67900;Laerm;54700;51.796;10.956;2022-10-31T03:20:23;49.69;26.91;64.63;;
67900;Laerm;54700;51.796;10.956;2022-10-31T03:22:51;52.71;28.16;69.04;;
67900;Laerm;54700;51.796;10.956;2022-10-31T03:25:19;32.94;28.51;41.49;;
67900;Laerm;54700;51.796;10.956;2022-10-31T03:27:46;55.42;27.41;70.82;;
67900;Laerm;54700;51.796;10.956;2022-10-31T03:30:14;30.25;27.34;46.31;;
67900;Laerm;54700;51.796;10.956;2022-10-31T03:32:47;53.71;26.89;70.53;;
67900;Laerm;54700;51.796;10.956;2022-10-31T03:35:18;30.75;26.92;42.08;;
67900;Laerm;54700;51.796;10.956;2022-10-31T03:37:46;29.81;27.33;38.10;;
67900;Laerm;54700;51.796;10.956;2022-10-31T03:40:16;33.36;27.01;51.50;;
67900;Laerm;54700;51.796;10.956;2022-10-31T03:42:51;30.54;27.56;42.57;;
67900;Laerm;54700;51.796;10.956;2022-10-31T03:45:23;50.43;27.14;67.24;;
67900;Laerm;54700;51.796;10.956;2022-10-31T03:47:52;51.33;28.11;67.14;;
67900;Laerm;54700;51.796;10.956;2022-10-31T03:50:21;53.34;29.29;69.79;;
67900;Laerm;54700;51.796;10.956;2022-10-31T03:52:56;51.72;29.28;66.24;;
67900;Laerm;54700;51.796;10.956;2022-10-31T03:55:27;33.57;27.47;51.13;;
67900;Laerm;54700;51.796;10.956;2022-10-31T03:57:59;54.60;27.99;71.01;;
67900;Laerm;54700;51.796;10.956;2022-10-31T04:00:27;31.69;28.27;46.43;;
67900;Laerm;54700;51.796;10.956;2022-10-31T04:02:59;31.12;28.09;49.34;;
67900;Laerm;54700;51.796;10.956;2022-10-31T04:05:29;31.61;27.91;43.90;;
67900;Laerm;54700;51.796;10.956;2022-10-31T04:07:58;48.37;28.08;66.44;;
67900;Laerm;54700;51.796;10.956;2022-10-31T04:10:28;55.80;28.79;70.71;;
67900;Laerm;54700;51.796;10.956;2022-10-31T04:12:59;35.15;29.41;50.71;;
67900;Laerm;54700;51.796;10.956;2022-10-31T04:15:31;52.12;28.86;67.97;;
67900;Laerm;54700;51.796;10.956;2022-10-31T04:18:01;50.06;29.77;66.75;;
67900;Laerm;54700;51.796;10.956;2022-10-31T04:20:30;34.53;29.62;43.99;;
67900;Laerm;54700;51.796;10.956;2022-10-31T04:22:57;52.99;30.68;67.72;;
67900;Laerm;54700;51.796;10.956;2022-10-31T04:25:24;50.87;29.45;68.76;;
67900;Laerm;54700;51.796;10.956;2022-10-31T04:27:51;48.49;28.81;65.09;;
67900;Laerm;54700;51.796;10.956;2022-10-31T04:30:18;56.20;28.72;69.38;;
67900;Laerm;54700;51.796;10.956;2022-10-31T04:32:45;45.32;28.18;58.69;;
67900;Laerm;54700;51.796;10.956;2022-10-31T04:35:13;52.30;28.62;67.07;;
67900;Laerm;54700;51.796;10.956;2022-10-31T04:37:40;53.78;30.17;69.13;;
67900;Laerm;54700;51.796;10.956;2022-10-31T04:40:07;59.26;30.37;72.36;;
67900;Laerm;54700;51.796;10.956;2022-10-31T04:42:34;54.23;29.70;66.07;;
67900;Laerm;54700;51.796;10.956;2022-10-31T04:45:01;46.92;28.63;65.87;;
67900;Laerm;54700;51.796;10.956;2022-10-31T04:47:30;52.02;28.53;67.56;;
67900;Laerm;54700;51.796;10.956;2022-10-31T04:49:57;33.64;28.77;55.19;;
67900;Laerm;54700;51.796;10.956;2022-10-31T04:52:26;52.68;28.85;67.80;;
67900;Laerm;54700;51.796;10.956;2022-10-31T04:54:52;53.49;29.65;69.58;;
67900;Laerm;54700;51.796;10.956;2022-10-31T04:57:19;54.49;29.81;68.64;;
67900;Laerm;54700;51.796;10.956;2022-10-31T04:59:46;52.98;29.85;66.41;;
67900;Laerm;54700;51.796;10.956;2022-10-31T05:02:13;32.38;28.52;40.83;;
67900;Laerm;54700;51.796;10.956;2022-10-31T05:04:40;48.31;28.96;64.09;;
67900;Laerm;54700;51.796;10.956;2022-10-31T05:07:06;52.66;28.99;68.28;;
67900;Laerm;54700;51.796;10.956;2022-10-31T05:09:34;51.69;29.34;65.76;;
67900;Laerm;54700;51.796;10.956;2022-10-31T05:12:01;49.27;30.39;67.10;;
67900;Laerm;54700;51.796;10.956;2022-10-31T05:14:28;54.52;29.74;69.36;;
67900;Laerm;54700;51.796;10.956;2022-10-31T05:16:55;53.80;29.43;66.54;;
67900;Laerm;54700;51.796;10.956;2022-10-31T05:19:22;35.93;28.65;55.15;;
67900;Laerm;54700;51.796;10.956;2022-10-31T05:21:48;53.40;29.49;66.11;;
67900;Laerm;54700;51.796;10.956;2022-10-31T05:24:15;48.05;33.79;61.72;;
67900;Laerm;54700;51.796;10.956;2022-10-31T05:26:43;53.52;30.06;68.37;;
67900;Laerm;54700;51.796;10.956;2022-10-31T05:29:10;46.15;28.77;63.58;;
67900;Laerm;54700;51.796;10.956;2022-10-31T05:31:37;57.34;31.82;72.51;;
67900;Laerm;54700;51.796;10.956;2022-10-31T05:34:04;49.17;29.12;64.85;;
67900;Laerm;54700;51.796;10.956;2022-10-31T05:36:30;52.45;30.30;66.25;;
67900;Laerm;54700;51.796;10.956;2022-10-31T05:38:57;54.74;30.23;68.20;;
67900;Laerm;54700;51.796;10.956;2022-10-31T05:41:24;56.21;30.57;70.32;;
67900;Laerm;54700;51.796;10.956;2022-10-31T05:43:52;49.40;29.88;67.64;;
67900;Laerm;54700;51.796;10.956;2022-10-31T05:46:19;34.59;29.46;43.35;;
67900;Laerm;54700;51.796;10.956;2022-10-31T05:48:46;44.38;29.80;69.86;;
67900;Laerm;54700;51.796;10.956;2022-10-31T05:51:13;52.86;31.41;67.01;;
67900;Laerm;54700;51.796;10.956;2022-10-31T05:53:40;53.53;30.05;67.92;;
67900;Laerm;54700;51.796;10.956;2022-10-31T05:56:07;36.38;27.99;47.06;;
67900;Laerm;54700;51.796;10.956;2022-10-31T05:58:33;35.07;29.07;46.25;;
67900;Laerm;54700;51.796;10.956;2022-10-31T06:01:02;54.15;32.01;66.80;;
67900;Laerm;54700;51.796;10.956;2022-10-31T06:03:30;52.43;30.99;69.36;;
67900;Laerm;54700;51.796;10.956;2022-10-31T06:05:57;55.73;31.17;69.74;;
67900;Laerm;54700;51.796;10.956;2022-10-31T06:08:24;59.67;31.32;71.84;;
67900;Laerm;54700;51.796;10.956;2022-10-31T06:10:51;42.60;29.87;60.74;;
67900;Laerm;54700;51.796;10.956;2022-10-31T06:13:19;51.46;30.87;67.14;;
67900;Laerm;54700;51.796;10.956;2022-10-31T06:15:46;54.35;30.82;68.37;;
67900;Laerm;54700;51.796;10.956;2022-10-31T06:18:14;50.81;31.23;68.75;;
67900;Laerm;54700;51.796;10.956;2022-10-31T06:20:41;50.52;30.36;67.05;;
67900;Laerm;54700;51.796;10.956;2022-10-31T06:23:08;54.93;30.87;71.93;;
67900;Laerm;54700;51.796;10.956;2022-10-31T06:25:35;51.67;30.77;68.11;;
67900;Laerm;54700;51.796;10.956;2022-10-31T06:28:02;35.33;30.59;51.10;;
67900;Laerm;54700;51.796;10.956;2022-10-31T06:30:29;54.83;30.52;68.86;;
67900;Laerm;54700;51.796;10.956;2022-10-31T06:33:01;50.80;30.50;68.71;;
67900;Laerm;54700;51.796;10.956;2022-10-31T06:35:29;53.73;30.89;68.10;;
67900;Laerm;54700;51.796;10.956;2022-10-31T06:37:56;54.63;32.31;66.49;;
67900;Laerm;54700;51.796;10.956;2022-10-31T06:40:23;56.22;32.73;73.37;;
67900;Laerm;54700;51.796;10.956;2022-10-31T06:42:56;55.67;32.31;68.20;;
67900;Laerm;54700;51.796;10.956;2022-10-31T06:45:23;52.96;32.08;71.77;;
67900;Laerm;54700;51.796;10.956;2022-10-31T06:47:51;57.69;32.69;72.32;;
67900;Laerm;54700;51.796;10.956;2022-10-31T06:50:18;54.40;33.78;68.24;;
67900;Laerm;54700;51.796;10.956;2022-10-31T06:52:51;54.49;32.46;70.07;;
67900;Laerm;54700;51.796;10.956;2022-10-31T06:55:18;57.54;33.34;69.97;;
67900;Laerm;54700;51.796;10.956;2022-10-31T06:57:50;54.14;30.36;66.78;;
67900;Laerm;54700;51.796;10.956;2022-10-31T07:00:17;53.13;32.52;68.04;;
67900;Laerm;54700;51.796;10.956;2022-10-31T07:02:52;53.55;31.40;66.47;;
67900;Laerm;54700;51.796;10.956;2022-10-31T07:05:19;56.29;31.77;67.68;;
67900;Laerm;54700;51.796;10.956;2022-10-31T07:07:46;54.02;30.97;69.03;;
67900;Laerm;54700;51.796;10.956;2022-10-31T07:10:14;56.27;32.76;69.08;;
67900;Laerm;54700;51.796;10.956;2022-10-31T07:12:41;56.55;34.23;71.83;;
67900;Laerm;54700;51.796;10.956;2022-10-31T07:15:08;55.42;35.09;68.08;;
67900;Laerm;54700;51.796;10.956;2022-10-31T07:17:35;57.26;33.23;68.44;;
67900;Laerm;54700;51.796;10.956;2022-10-31T07:20:03;56.37;32.13;68.86;;
67900;Laerm;54700;51.796;10.956;2022-10-31T07:22:34;58.67;31.57;74.65;;
67900;Laerm;54700;51.796;10.956;2022-10-31T07:25:01;55.93;32.88;72.80;;
67900;Laerm;54700;51.796;10.956;2022-10-31T07:27:35;52.89;32.94;68.22;;
67900;Laerm;54700;51.796;10.956;2022-10-31T07:30:02;59.90;34.74;72.73;;
67900;Laerm;54700;51.796;10.956;2022-10-31T07:32:37;59.06;33.11;72.70;;
67900;Laerm;54700;51.796;10.956;2022-10-31T07:35:04;58.32;31.98;68.84;;
67900;Laerm;54700;51.796;10.956;2022-10-31T07:37:31;51.20;32.57;67.13;;
67900;Laerm;54700;51.796;10.956;2022-10-31T07:39:58;50.10;33.23;65.00;;
67900;Laerm;54700;51.796;10.956;2022-10-31T07:42:25;57.78;32.74;68.75;;
67900;Laerm;54700;51.796;10.956;2022-10-31T07:44:53;53.48;32.41;69.83;;
67900;Laerm;54700;51.796;10.956;2022-10-31T07:47:20;56.19;32.49;68.75;;
67900;Laerm;54700;51.796;10.956;2022-10-31T07:49:47;56.85;32.36;70.29;;
67900;Laerm;54700;51.796;10.956;2022-10-31T07:52:13;59.11;32.66;71.76;;
67900;Laerm;54700;51.796;10.956;2022-10-31T07:54:40;57.09;34.68;70.17;;
67900;Laerm;54700;51.796;10.956;2022-10-31T07:57:07;58.45;33.30;69.99;;
67900;Laerm;54700;51.796;10.956;2022-10-31T07:59:34;58.44;32.54;71.57;;
67900;Laerm;54700;51.796;10.956;2022-10-31T08:02:03;58.76;31.84;69.74;;
67900;Laerm;54700;51.796;10.956;2022-10-31T08:04:29;54.46;30.78;65.91;;
67900;Laerm;54700;51.796;10.956;2022-10-31T08:06:57;59.31;33.57;67.57;;
67900;Laerm;54700;51.796;10.956;2022-10-31T08:09:24;59.09;29.94;70.75;;
67900;Laerm;54700;51.796;10.956;2022-10-31T08:11:52;60.22;31.54;74.27;;
67900;Laerm;54700;51.796;10.956;2022-10-31T08:14:19;54.06;31.21;71.43;;
67900;Laerm;54700;51.796;10.956;2022-10-31T08:16:46;60.56;30.76;72.52;;
67900;Laerm;54700;51.796;10.956;2022-10-31T08:19:14;55.46;31.18;69.45;;
67900;Laerm;54700;51.796;10.956;2022-10-31T08:21:41;56.62;35.45;67.65;;
67900;Laerm;54700;51.796;10.956;2022-10-31T08:24:08;57.67;31.53;67.41;;
67900;Laerm;54700;51.796;10.956;2022-10-31T08:26:35;61.73;34.76;71.95;;
67900;Laerm;54700;51.796;10.956;2022-10-31T08:29:03;59.59;30.12;70.33;;
67900;Laerm;54700;51.796;10.956;2022-10-31T08:31:30;59.88;29.49;72.03;;
67900;Laerm;54700;51.796;10.956;2022-10-31T08:33:56;57.78;31.15;67.57;;
67900;Laerm;54700;51.796;10.956;2022-10-31T08:36:25;58.66;31.08;73.24;;
67900;Laerm;54700;51.796;10.956;2022-10-31T08:38:52;57.63;35.03;68.14;;
67900;Laerm;54700;51.796;10.956;2022-10-31T08:41:18;57.31;29.99;69.97;;
67900;Laerm;54700;51.796;10.956;2022-10-31T08:43:46;59.94;29.02;69.61;;
67900;Laerm;54700;51.796;10.956;2022-10-31T08:46:13;57.53;30.29;68.22;;
67900;Laerm;54700;51.796;10.956;2022-10-31T08:48:40;58.50;31.98;69.20;;
67900;Laerm;54700;51.796;10.956;2022-10-31T08:51:08;57.25;30.91;67.64;;
67900;Laerm;54700;51.796;10.956;2022-10-31T08:53:37;58.47;30.82;68.93;;
67900;Laerm;54700;51.796;10.956;2022-10-31T08:56:04;58.04;30.73;68.86;;
67900;Laerm;54700;51.796;10.956;2022-10-31T08:58:31;60.57;37.76;70.63;;
67900;Laerm;54700;51.796;10.956;2022-10-31T09:01:00;60.01;34.34;69.19;;
67900;Laerm;54700;51.796;10.956;2022-10-31T09:03:30;60.80;33.47;70.93;;
67900;Laerm;54700;51.796;10.956;2022-10-31T09:05:58;59.21;32.09;71.15;;
67900;Laerm;54700;51.796;10.956;2022-10-31T09:08:26;58.61;31.33;69.47;;
67900;Laerm;54700;51.796;10.956;2022-10-31T09:10:57;60.38;29.80;68.93;;
67900;Laerm;54700;51.796;10.956;2022-10-31T09:13:24;59.16;31.13;70.98;;
67900;Laerm;54700;51.796;10.956;2022-10-31T09:15:51;59.11;30.11;70.09;;
67900;Laerm;54700;51.796;10.956;2022-10-31T09:18:20;60.31;32.15;73.70;;
67900;Laerm;54700;51.796;10.956;2022-10-31T09:20:48;61.09;37.68;70.89;;
67900;Laerm;54700;51.796;10.956;2022-10-31T09:23:17;58.11;30.59;70.26;;
67900;Laerm;54700;51.796;10.956;2022-10-31T09:25:45;61.53;41.69;71.74;;
67900;Laerm;54700;51.796;10.956;2022-10-31T09:28:16;60.07;38.03;69.97;;
67900;Laerm;54700;51.796;10.956;2022-10-31T09:30:45;62.57;40.19;72.37;;
67900;Laerm;54700;51.796;10.956;2022-10-31T09:33:13;61.32;33.04;70.86;;
67900;Laerm;54700;51.796;10.956;2022-10-31T09:35:40;56.67;29.89;69.31;;
67900;Laerm;54700;51.796;10.956;2022-10-31T09:38:09;59.98;29.97;70.97;;
67900;Laerm;54700;51.796;10.956;2022-10-31T09:40:39;58.19;29.29;71.54;;
67900;Laerm;54700;51.796;10.956;2022-10-31T09:43:15;59.61;30.46;70.58;;
67900;Laerm;54700;51.796;10.956;2022-10-31T09:45:56;57.90;29.90;69.30;;
67900;Laerm;54700;51.796;10.956;2022-10-31T09:48:44;59.05;32.16;69.54;;
67900;Laerm;54700;51.796;10.956;2022-10-31T09:51:17;61.31;32.26;74.41;;
67900;Laerm;54700;51.796;10.956;2022-10-31T09:53:49;59.61;31.18;71.30;;
67900;Laerm;54700;51.796;10.956;2022-10-31T09:56:19;61.32;33.95;69.87;;
67900;Laerm;54700;51.796;10.956;2022-10-31T09:58:50;62.65;37.09;71.15;;
67900;Laerm;54700;51.796;10.956;2022-10-31T10:01:30;59.33;31.21;71.44;;
67900;Laerm;54700;51.796;10.956;2022-10-31T10:04:02;61.15;36.13;70.87;;
67900;Laerm;54700;51.796;10.956;2022-10-31T10:06:34;56.54;29.57;69.28;;
67900;Laerm;54700;51.796;10.956;2022-10-31T10:09:05;59.60;30.18;70.66;;
67900;Laerm;54700;51.796;10.956;2022-10-31T10:11:43;58.76;31.30;70.86;;
67900;Laerm;54700;51.796;10.956;2022-10-31T10:14:27;60.35;30.31;71.32;;
67900;Laerm;54700;51.796;10.956;2022-10-31T10:17:08;60.07;32.58;70.28;;
67900;Laerm;54700;51.796;10.956;2022-10-31T10:19:47;60.43;31.07;68.96;;
67900;Laerm;54700;51.796;10.956;2022-10-31T10:22:22;58.12;30.52;68.19;;
67900;Laerm;54700;51.796;10.956;2022-10-31T10:25:07;61.25;29.53;71.28;;
67900;Laerm;54700;51.796;10.956;2022-10-31T10:27:51;60.95;34.55;73.98;;
67900;Laerm;54700;51.796;10.956;2022-10-31T10:30:25;58.10;32.74;73.37;;
67900;Laerm;54700;51.796;10.956;2022-10-31T10:32:57;61.56;36.09;71.94;;
67900;Laerm;54700;51.796;10.956;2022-10-31T10:35:28;59.68;28.94;69.71;;
67900;Laerm;54700;51.796;10.956;2022-10-31T10:38:00;58.08;29.02;68.73;;
67900;Laerm;54700;51.796;10.956;2022-10-31T10:40:29;61.81;30.66;73.37;;
67900;Laerm;54700;51.796;10.956;2022-10-31T10:43:01;60.86;30.58;71.65;;
67900;Laerm;54700;51.796;10.956;2022-10-31T10:45:55;60.32;31.54;70.18;;
67900;Laerm;54700;51.796;10.956;2022-10-31T10:48:45;58.26;29.56;70.06;;
67900;Laerm;54700;51.796;10.956;2022-10-31T10:51:23;59.93;30.66;71.43;;
67900;Laerm;54700;51.796;10.956;2022-10-31T10:54:02;59.96;33.09;69.80;;
67900;Laerm;54700;51.796;10.956;2022-10-31T10:56:38;60.66;30.23;70.44;;
67900;Laerm;54700;51.796;10.956;2022-10-31T10:59:11;59.28;36.56;68.56;;
67900;Laerm;54700;51.796;10.956;2022-10-31T11:01:41;55.53;33.04;68.80;;
67900;Laerm;54700;51.796;10.956;2022-10-31T11:04:24;58.93;33.05;70.77;;
67900;Laerm;54700;51.796;10.956;2022-10-31T11:07:03;59.86;33.34;69.56;;
67900;Laerm;54700;51.796;10.956;2022-10-31T11:09:31;60.17;35.17;73.27;;
67900;Laerm;54700;51.796;10.956;2022-10-31T11:11:58;58.12;29.98;71.72;;
67900;Laerm;54700;51.796;10.956;2022-10-31T11:14:27;57.55;29.13;70.48;;
67900;Laerm;54700;51.796;10.956;2022-10-31T11:17:08;55.87;29.77;67.45;;
67900;Laerm;54700;51.796;10.956;2022-10-31T11:19:36;59.63;35.37;68.59;;
67900;Laerm;54700;51.796;10.956;2022-10-31T11:22:07;61.28;31.00;75.10;;
67900;Laerm;54700;51.796;10.956;2022-10-31T11:24:39;54.66;29.82;66.35;;
67900;Laerm;54700;51.796;10.956;2022-10-31T11:27:14;58.79;31.63;71.15;;
67900;Laerm;54700;51.796;10.956;2022-10-31T11:29:42;61.95;32.94;73.01;;
67900;Laerm;54700;51.796;10.956;2022-10-31T11:32:18;56.62;29.92;67.98;;
67900;Laerm;54700;51.796;10.956;2022-10-31T11:34:51;61.48;31.02;72.55;;
67900;Laerm;54700;51.796;10.956;2022-10-31T11:37:21;56.35;29.46;70.23;;
67900;Laerm;54700;51.796;10.956;2022-10-31T11:39:52;58.17;31.59;70.21;;
67900;Laerm;54700;51.796;10.956;2022-10-31T11:42:25;60.41;39.29;69.60;;
67900;Laerm;54700;51.796;10.956;2022-10-31T11:44:54;56.51;29.42;69.22;;
67900;Laerm;54700;51.796;10.956;2022-10-31T11:47:26;59.17;30.08;69.59;;
67900;Laerm;54700;51.796;10.956;2022-10-31T11:49:54;60.48;31.97;74.26;;
67900;Laerm;54700;51.796;10.956;2022-10-31T11:52:25;55.46;30.04;67.93;;
67900;Laerm;54700;51.796;10.956;2022-10-31T11:54:54;56.40;31.39;68.00;;
67900;Laerm;54700;51.796;10.956;2022-10-31T11:57:23;58.56;31.32;68.52;;
67900;Laerm;54700;51.796;10.956;2022-10-31T11:59:52;60.75;31.68;71.10;;
67900;Laerm;54700;51.796;10.956;2022-10-31T12:02:20;58.24;29.75;71.49;;
67900;Laerm;54700;51.796;10.956;2022-10-31T12:04:53;62.76;35.30;78.61;;
67900;Laerm;54700;51.796;10.956;2022-10-31T12:07:23;56.84;33.67;69.04;;
67900;Laerm;54700;51.796;10.956;2022-10-31T12:09:50;59.46;32.62;69.99;;
67900;Laerm;54700;51.796;10.956;2022-10-31T12:12:34;60.40;31.51;71.85;;
67900;Laerm;54700;51.796;10.956;2022-10-31T12:15:20;58.07;30.84;74.84;;
67900;Laerm;54700;51.796;10.956;2022-10-31T12:18:03;61.75;31.18;71.97;;
67900;Laerm;54700;51.796;10.956;2022-10-31T12:20:44;60.07;36.17;69.48;;
67900;Laerm;54700;51.796;10.956;2022-10-31T12:23:21;60.60;30.86;69.50;;
67900;Laerm;54700;51.796;10.956;2022-10-31T12:25:55;60.18;31.32;71.67;;
67900;Laerm;54700;51.796;10.956;2022-10-31T12:28:41;57.24;32.37;69.52;;
67900;Laerm;54700;51.796;10.956;2022-10-31T12:31:27;60.04;35.36;69.47;;
67900;Laerm;54700;51.796;10.956;2022-10-31T12:34:07;60.86;30.80;71.47;;
67900;Laerm;54700;51.796;10.956;2022-10-31T12:36:46;59.61;34.13;68.34;;
67900;Laerm;54700;51.796;10.956;2022-10-31T12:39:24;60.38;31.57;74.98;;
67900;Laerm;54700;51.796;10.956;2022-10-31T12:41:52;59.22;31.42;68.54;;
67900;Laerm;54700;51.796;10.956;2022-10-31T12:44:51;58.97;33.29;69.51;;
67900;Laerm;54700;51.796;10.956;2022-10-31T12:47:44;57.43;31.01;70.27;;
67900;Laerm;54700;51.796;10.956;2022-10-31T12:50:28;62.44;31.84;78.79;;
67900;Laerm;54700;51.796;10.956;2022-10-31T12:53:11;58.56;31.79;69.64;;
67900;Laerm;54700;51.796;10.956;2022-10-31T12:55:54;60.15;41.06;69.34;;
67900;Laerm;54700;51.796;10.956;2022-10-31T12:58:26;63.90;45.33;77.08;;
67900;Laerm;54700;51.796;10.956;2022-10-31T13:01:03;60.42;34.82;70.69;;
67900;Laerm;54700;51.796;10.956;2022-10-31T13:03:38;60.24;33.31;70.27;;
67900;Laerm;54700;51.796;10.956;2022-10-31T13:06:09;57.66;32.01;69.45;;
67900;Laerm;54700;51.796;10.956;2022-10-31T13:08:44;59.01;31.75;70.48;;
67900;Laerm;54700;51.796;10.956;2022-10-31T13:11:15;60.56;33.22;71.40;;
67900;Laerm;54700;51.796;10.956;2022-10-31T13:13:50;60.66;30.70;71.82;;
67900;Laerm;54700;51.796;10.956;2022-10-31T13:16:19;61.20;30.79;70.53;;
67900;Laerm;54700;51.796;10.956;2022-10-31T13:18:58;61.55;35.77;70.99;;
67900;Laerm;54700;51.796;10.956;2022-10-31T13:21:32;59.12;33.20;69.87;;
67900;Laerm;54700;51.796;10.956;2022-10-31T13:24:04;61.24;36.54;70.01;;
67900;Laerm;54700;51.796;10.956;2022-10-31T13:26:37;59.88;32.61;70.28;;
67900;Laerm;54700;51.796;10.956;2022-10-31T13:29:11;60.14;32.34;69.71;;
67900;Laerm;54700;51.796;10.956;2022-10-31T13:31:40;62.24;36.53;72.95;;
67900;Laerm;54700;51.796;10.956;2022-10-31T13:34:14;61.87;35.42;77.06;;
67900;Laerm;54700;51.796;10.956;2022-10-31T13:36:50;60.08;34.65;69.94;;
67900;Laerm;54700;51.796;10.956;2022-10-31T13:39:27;59.71;31.86;73.46;;
67900;Laerm;54700;51.796;10.956;2022-10-31T13:42:02;59.73;38.61;71.67;;
67900;Laerm;54700;51.796;10.956;2022-10-31T13:44:30;62.26;31.94;76.09;;
67900;Laerm;54700;51.796;10.956;2022-10-31T13:47:20;60.62;31.89;69.82;;
67900;Laerm;54700;51.796;10.956;2022-10-31T13:49:48;60.90;34.24;71.86;;
67900;Laerm;54700;51.796;10.956;2022-10-31T13:52:22;60.20;34.78;68.93;;